Time;durP1;ratioP1;P1;durP2;ratioP2;P2;SDS_P1;SDS_P2;PMS_P1;PMS_P2;Temp;Humidity;BMP_temperature;BMP_pressure;BME280_temperature;BME280_humidity;BME280_pressure;Samples;Min_cycle;Max_cycle;Signal;HPM_P1;HPM_P2
2021/12/05 00:23:21;;;;;;;;;1.00;0.00;;;;;11.44;100.00;99898.22;5060110;28;45324;-85
2021/12/05 00:57:26;;;;;;;;;1.75;1.00;;;;;11.47;100.00;99875.97;5067119;28;45581;-85
2021/12/05 01:00:03;;;;;;;;;1.00;1.00;;;;;11.40;100.00;99867.69;5058836;28;45403;-84
2021/12/05 01:03:08;;;;;;;;;1.00;1.00;;;;;11.43;100.00;99861.31;5041179;28;46340;-85
2021/12/05 01:11:13;;;;;;;;;2.00;0.75;;;;;11.70;99.67;99869.53;5061025;28;45492;-84
2021/12/05 01:13:58;;;;;;;;;0.25;0.00;;;;;11.73;98.95;99869.28;5077136;27;45505;-84
2021/12/05 01:16:25;;;;;;;;;0.00;0.00;;;;;11.52;99.66;99860.53;5101116;27;45429;-84
2021/12/05 01:18:58;;;;;;;;;0.00;0.00;;;;;11.60;98.47;99860.72;5101906;27;45350;-84
2021/12/05 01:21:34;;;;;;;;;0.00;0.00;;;;;11.56;98.81;99869.91;5101822;27;45392;-84
2021/12/05 01:27:08;;;;;;;;;2.00;0.25;;;;;11.27;99.75;99848.59;5101508;27;45628;-84
2021/12/05 01:29:51;;;;;;;;;0.00;0.00;;;;;11.14;100.00;99847.94;5101521;27;45489;-84
2021/12/05 01:35:05;;;;;;;;;0.00;0.00;;;;;11.18;100.00;99844.06;5079934;27;45782;-84
2021/12/05 01:37:45;;;;;;;;;1.00;1.00;;;;;11.36;99.98;99845.16;5076623;27;45486;-84
2021/12/05 01:40:43;;;;;;;;;1.00;0.00;;;;;11.46;98.94;99839.94;5057628;28;45345;-84
2021/12/05 01:59:24;;;;;;;;;0.00;0.00;;;;;11.45;98.46;99838.25;5090705;27;45687;-84
2021/12/05 02:02:28;;;;;;;;;0.00;0.00;;;;;11.50;98.50;99836.88;5060263;28;45415;-84
2021/12/05 02:29:38;;;;;;;;;0.00;0.00;;;;;11.52;97.11;99829.66;5079382;28;45249;-84
2021/12/05 02:35:18;;;;;;;;;0.00;0.00;;;;;11.51;97.21;99824.50;5082884;28;45466;-84
2021/12/05 02:38:14;;;;;;;;;0.00;0.00;;;;;11.38;97.41;99839.75;5085377;28;45452;-84
2021/12/05 02:43:15;;;;;;;;;0.00;0.00;;;;;11.56;97.41;99838.16;5086497;28;45429;-84
2021/12/05 02:45:45;;;;;;;;;3.25;0.00;;;;;11.60;97.32;99821.06;5068183;28;45214;-84
2021/12/05 02:48:12;;;;;;;;;0.75;0.00;;;;;11.54;97.54;99817.16;5064992;28;45523;-84
2021/12/05 02:50:38;;;;;;;;;3.25;0.00;;;;;11.67;96.47;99805.50;5100184;27;45271;-84
2021/12/05 02:53:35;;;;;;;;;2.50;0.00;;;;;11.90;95.62;99805.19;5099300;27;45342;-84
2021/12/05 02:55:52;;;;;;;;;0.00;0.00;;;;;11.75;95.42;99798.59;5085054;28;45507;-84
2021/12/05 02:58:41;;;;;;;;;0.00;0.00;;;;;11.71;96.41;99798.97;5066815;28;45536;-84
2021/12/05 03:01:16;;;;;;;;;0.75;0.00;;;;;11.47;97.69;99788.72;5076748;28;46151;-84
2021/12/05 03:03:47;;;;;;;;;1.00;0.00;;;;;11.34;97.86;99791.59;5085779;28;45487;-84
2021/12/05 03:06:20;;;;;;;;;2.75;0.50;;;;;11.36;98.51;99794.94;5057340;28;45444;-84
2021/12/05 03:08:48;;;;;;;;;1.00;0.00;;;;;11.28;98.21;99804.50;5080504;28;45379;-84
2021/12/05 03:11:15;;;;;;;;;0.00;0.00;;;;;11.27;98.53;99806.28;5067887;28;47259;-84
2021/12/05 03:13:42;;;;;;;;;0.00;0.00;;;;;11.23;97.84;99805.72;5085307;28;46156;-84
2021/12/05 03:16:11;;;;;;;;;1.00;0.00;;;;;11.28;98.00;99796.56;5086028;28;45479;-84
2021/12/05 03:18:37;;;;;;;;;0.00;0.00;;;;;11.09;98.25;99795.50;5085541;28;45548;-84
2021/12/05 03:21:04;;;;;;;;;1.75;0.75;;;;;11.12;98.65;99802.28;5085703;28;45379;-84
2021/12/05 03:23:30;;;;;;;;;0.00;0.00;;;;;10.98;99.40;99803.47;5085656;28;45457;-84
2021/12/05 03:25:56;;;;;;;;;1.00;0.00;;;;;10.95;99.71;99797.59;5064604;28;45354;-84
2021/12/05 03:28:24;;;;;;;;;1.00;0.00;;;;;10.90;99.81;99790.06;5082746;27;45186;-84
2021/12/05 03:30:50;;;;;;;;;0.00;0.00;;;;;10.81;100.00;99786.41;5103451;27;45354;-84
2021/12/05 03:33:18;;;;;;;;;0.50;0.00;;;;;10.96;99.63;99791.34;5079985;28;45541;-84
2021/12/05 03:35:44;;;;;;;;;1.00;0.00;;;;;10.95;99.89;99802.88;5081569;28;45492;-83
2021/12/05 03:38:10;;;;;;;;;0.00;0.00;;;;;10.83;100.00;99781.81;5086594;27;45410;-84
2021/12/05 03:40:38;;;;;;;;;1.00;0.00;;;;;10.84;100.00;99783.47;5091092;27;46181;-84
2021/12/05 03:43:10;;;;;;;;;1.50;0.00;;;;;10.95;99.99;99789.66;5089959;27;45635;-84
2021/12/05 03:45:41;;;;;;;;;0.00;0.00;;;;;10.98;100.00;99792.91;5104830;27;45713;-84
2021/12/05 03:48:09;;;;;;;;;0.00;0.00;;;;;10.80;98.92;99774.16;5093924;27;45421;-83
2021/12/05 03:50:36;;;;;;;;;0.50;0.00;;;;;10.88;99.06;99779.63;5081957;28;46308;-85
2021/12/05 03:53:02;;;;;;;;;4.00;0.00;;;;;11.05;98.41;99780.84;5091553;27;45457;-84
2021/12/05 03:55:28;;;;;;;;;3.00;0.00;;;;;11.30;95.97;99776.94;5099028;27;45466;-84
2021/12/05 03:57:56;;;;;;;;;0.00;0.00;;;;;11.13;96.99;99767.81;5089712;27;45274;-85
2021/12/05 04:00:30;;;;;;;;;0.00;0.00;;;;;11.25;97.23;99761.50;5063374;27;48267;-84
2021/12/05 04:02:57;;;;;;;;;0.75;0.00;;;;;11.32;96.50;99755.66;5085214;27;45429;-85
2021/12/05 04:05:25;;;;;;;;;0.00;0.00;;;;;11.15;95.90;99759.75;5089358;27;45417;-84
2021/12/05 04:07:50;;;;;;;;;0.00;0.00;;;;;11.20;95.87;99771.59;5081865;28;45549;-84
2021/12/05 04:10:17;;;;;;;;;0.00;0.00;;;;;11.07;95.77;99760.44;5081138;28;45574;-84
2021/12/05 04:12:46;;;;;;;;;0.00;0.00;;;;;11.15;96.29;99765.06;5066103;27;45919;-84
2021/12/05 04:15:13;;;;;;;;;0.00;0.00;;;;;11.04;95.78;99760.69;5092512;27;45540;-84
2021/12/05 04:17:47;;;;;;;;;0.00;0.00;;;;;10.87;95.88;99775.31;5097897;27;45400;-85
2021/12/05 04:20:15;;;;;;;;;0.00;0.00;;;;;10.85;96.26;99766.69;5089198;27;45542;-84
2021/12/05 04:23:12;;;;;;;;;0.00;0.00;;;;;10.97;96.33;99774.53;5066297;28;45396;-85
2021/12/05 04:25:38;;;;;;;;;0.00;0.00;;;;;11.00;96.06;99774.28;5058810;28;45524;-85
2021/12/05 04:28:06;;;;;;;;;0.25;0.00;;;;;10.94;96.21;99767.69;5067693;28;46465;-85
2021/12/05 04:30:35;;;;;;;;;1.00;0.00;;;;;10.98;94.94;99763.00;5061532;28;47348;-85
2021/12/05 04:33:04;;;;;;;;;1.00;0.00;;;;;10.73;95.00;99782.72;5079118;28;45743;-85
2021/12/05 04:35:31;;;;;;;;;0.00;0.00;;;;;10.77;96.47;99773.56;5083349;28;45498;-85
2021/12/05 04:37:57;;;;;;;;;0.50;0.00;;;;;10.79;95.70;99764.56;5081013;28;45789;-85
2021/12/05 04:40:23;;;;;;;;;0.00;0.00;;;;;10.89;95.41;99759.34;5080633;28;45972;-85
2021/12/05 04:42:49;;;;;;;;;0.00;0.00;;;;;10.82;95.57;99751.09;5068479;27;45319;-85
2021/12/05 04:45:22;;;;;;;;;0.00;0.00;;;;;10.97;95.51;99748.97;5082613;27;45260;-85
2021/12/05 04:47:51;;;;;;;;;0.00;0.00;;;;;10.60;96.81;99763.59;5086727;27;45354;-85
2021/12/05 04:50:18;;;;;;;;;1.00;0.00;;;;;10.67;96.19;99760.28;5082316;27;45495;-84
2021/12/05 04:52:46;;;;;;;;;0.00;0.00;;;;;10.81;95.04;99756.50;5079899;28;45350;-85
2021/12/05 04:55:12;;;;;;;;;1.00;0.00;;;;;11.03;94.75;99766.91;5063504;28;45467;-85
2021/12/05 04:57:41;;;;;;;;;1.00;0.00;;;;;11.18;94.05;99757.72;5062373;28;45410;-85
2021/12/05 05:00:29;;;;;;;;;0.00;0.00;;;;;11.00;94.37;99755.81;5085861;27;46070;-85
2021/12/05 05:02:58;;;;;;;;;0.00;0.00;;;;;10.92;93.83;99761.72;5083657;27;45252;-85
2021/12/05 05:05:26;;;;;;;;;0.00;0.00;;;;;10.99;94.13;99743.56;5072864;27;45312;-85
2021/12/05 05:07:54;;;;;;;;;0.00;0.00;;;;;11.08;93.58;99754.19;5063059;27;45690;-85
2021/12/05 05:10:23;;;;;;;;;0.00;0.00;;;;;11.13;93.81;99743.19;5092433;27;45418;-85
2021/12/05 05:12:51;;;;;;;;;0.75;0.00;;;;;10.83;94.66;99733.47;5080302;28;45759;-85
2021/12/05 05:15:22;;;;;;;;;2.00;0.00;;;;;10.81;95.66;99730.09;5081025;28;45649;-84
2021/12/05 05:17:51;;;;;;;;;0.25;0.00;;;;;10.75;96.26;99727.97;5079812;28;45704;-84
2021/12/05 05:20:30;;;;;;;;;1.00;0.00;;;;;10.64;96.30;99735.97;5083935;27;45317;-85
2021/12/05 05:29:01;;;;;;;;;0.00;0.00;;;;;10.63;96.98;99729.84;5093137;28;44716;-85
2021/12/05 05:46:54;;;;;;;;;0.00;0.00;;;;;10.84;96.57;99749.16;5102577;28;44681;-85
2021/12/05 05:49:30;;;;;;;;;0.00;0.00;;;;;10.91;96.71;99760.06;5099152;28;44724;-85
2021/12/05 05:51:56;;;;;;;;;0.00;0.00;;;;;11.05;95.90;99758.88;5085683;28;47248;-85
2021/12/05 05:54:28;;;;;;;;;0.50;0.00;;;;;10.95;95.85;99755.34;5085969;28;45291;-85
2021/12/05 05:57:11;;;;;;;;;;;;;;;;;;;;;
2021/12/05 05:59:56;;;;;;;;;;;;;;;;;;;;;
2021/12/05 06:05:07;;;;;;;;;1.00;0.00;;;;;10.98;100.00;99736.59;5079844;28;45456;-85
2021/12/05 06:07:43;;;;;;;;;;;;;;;;;;;;;
2021/12/05 06:10:14;;;;;;;;;1.00;1.00;;;;;10.86;100.00;99738.47;5091276;27;72213;-85
2021/12/05 06:12:44;;;;;;;;;1.00;0.00;;;;;10.79;100.00;99735.50;5061490;28;47287;-85
2021/12/05 06:15:12;;;;;;;;;0.00;0.00;;;;;10.83;100.00;99736.09;5077291;28;45475;-85
2021/12/05 06:17:46;;;;;;;;;1.00;0.00;;;;;10.90;100.00;99734.59;5083640;27;45233;-85
2021/12/05 06:20:34;;;;;;;;;0.00;0.00;;;;;11.05;100.00;99727.16;5066595;28;45432;-85
2021/12/05 06:23:02;;;;;;;;;0.00;0.00;;;;;11.02;100.00;99719.50;5069107;28;46860;-85
2021/12/05 06:25:35;;;;;;;;;1.00;0.00;;;;;11.03;98.83;99723.81;5058630;28;45430;-85
2021/12/05 06:28:08;;;;;;;;;0.00;0.00;;;;;11.04;99.49;99720.22;5064138;27;45601;-85
2021/12/05 06:41:45;;;;;;;;;;;;;;;;;;;;;
2021/12/05 06:46:53;;;;;;;;;0.00;0.00;;;;;11.13;97.35;99732.63;5100372;27;45212;-85
2021/12/05 06:49:23;;;;;;;;;3.25;0.00;;;;;11.24;97.07;99728.09;5089234;27;45460;-85
2021/12/05 06:52:07;;;;;;;;;0.00;0.00;;;;;11.11;96.91;99729.28;5061519;28;45798;-85
2021/12/05 06:54:42;;;;;;;;;1.50;0.00;;;;;10.98;97.24;99737.44;5079346;27;45622;-85
2021/12/05 06:57:12;;;;;;;;;0.00;0.00;;;;;11.07;97.51;99736.66;5083939;27;45324;-85
2021/12/05 06:59:52;;;;;;;;;;;;;;;;;;;;;
2021/12/05 07:02:19;;;;;;;;;3.50;0.00;;;;;11.22;98.61;99751.19;5077399;28;73361;-86
2021/12/05 07:07:28;;;;;;;;;2.00;0.00;;;;;11.36;100.00;99763.22;5078832;28;45331;-85
2021/12/05 07:09:56;;;;;;;;;0.00;0.00;;;;;11.22;100.00;99753.81;5060936;28;45454;-85
2021/12/05 07:40:29;;;;;;;;;0.00;0.00;;;;;10.64;100.00;99747.38;5082339;28;45582;-85
2021/12/05 07:43:10;;;;;;;;;0.00;0.00;;;;;11.16;100.00;99756.16;5082830;28;45490;-85
2021/12/05 07:45:54;;;;;;;;;0.75;0.00;;;;;11.28;100.00;99756.91;5081829;28;45334;-85
2021/12/05 07:48:25;;;;;;;;;1.00;0.00;;;;;11.42;100.00;99762.69;5083692;27;46066;-86
2021/12/05 07:51:24;;;;;;;;;;;;;;;;;;;;;
2021/12/05 07:54:31;;;;;;;;;0.00;0.00;;;;;11.38;100.00;99744.59;5080683;28;68961;-86
2021/12/05 07:57:17;;;;;;;;;3.75;0.00;;;;;11.23;100.00;99758.13;5085721;27;45485;-86
2021/12/05 08:16:24;;;;;;;;;0.00;0.00;;;;;11.49;100.00;99762.97;5083548;27;45363;-86
2021/12/05 08:19:19;;;;;;;;;;;;;;;;;;;;;
2021/12/05 08:21:54;;;;;;;;;5.75;2.00;;;;;11.59;100.00;99754.09;5077003;28;75429;-86
2021/12/05 08:24:40;;;;;;;;;;;;;;;;;;;;;
2021/12/05 08:27:19;;;;;;;;;;;;;;;;;;;;;
2021/12/05 08:30:08;;;;;;;;;;;;;;;;;;;;;
2021/12/05 08:33:14;;;;;;;;;0.00;0.00;;;;;11.89;100.00;99776.22;5087795;27;75187;-86
2021/12/05 08:39:03;;;;;;;;;2.00;0.25;;;;;11.85;100.00;99765.06;5084204;27;45737;-86
2021/12/05 08:44:32;;;;;;;;;2.00;0.25;;;;;12.31;100.00;99787.44;5088283;27;46054;-86
2021/12/05 09:23:30;;;;;;;;;;;;;;;;;;;;;
2021/12/05 10:08:01;;;;;;;;;1.75;1.00;;;;;13.99;94.13;99807.06;5075800;28;45766;-88
2021/12/05 10:10:35;;;;;;;;;2.25;1.00;;;;;13.99;93.05;99815.88;5080966;27;45308;-83
2021/12/05 10:13:24;;;;;;;;;2.75;1.00;;;;;13.91;95.49;99821.06;5073638;28;45550;-85
2021/12/05 10:16:13;;;;;;;;;2.50;1.00;;;;;14.27;93.61;99818.50;5089321;27;45415;-83
2021/12/05 10:37:55;;;;;;;;;4.00;1.50;;;;;14.66;98.97;99811.13;5100208;27;45308;-84
2021/12/05 10:40:33;;;;;;;;;1.00;1.00;;;;;14.68;100.00;99809.97;5100338;27;45378;-85
2021/12/05 10:42:59;;;;;;;;;2.00;1.25;;;;;14.39;100.00;99809.34;5100649;27;45377;-85
2021/12/05 10:45:32;;;;;;;;;3.00;1.75;;;;;14.29;99.51;99800.59;5100213;27;45469;-85
2021/12/05 10:48:00;;;;;;;;;2.50;1.00;;;;;14.31;96.34;99803.91;5100027;27;45325;-85
2021/12/05 10:50:38;;;;;;;;;2.00;2.00;;;;;14.32;94.40;99795.81;5100045;27;46112;-84
2021/12/05 10:53:25;;;;;;;;;1.50;1.00;;;;;14.32;93.61;99794.97;5081827;27;45207;-84
2021/12/05 10:55:58;;;;;;;;;2.00;2.00;;;;;14.28;93.83;99804.25;5096703;27;45173;-84
2021/12/05 10:58:29;;;;;;;;;6.75;1.50;;;;;13.89;93.20;99795.66;5083300;28;45486;-84
2021/12/05 11:01:06;;;;;;;;;3.00;1.00;;;;;13.89;97.29;99799.16;5064798;28;46954;-84
2021/12/05 11:03:31;;;;;;;;;4.50;1.00;;;;;13.71;100.00;99799.09;5083208;28;45255;-84
2021/12/05 11:05:56;;;;;;;;;1.00;1.00;;;;;13.76;100.00;99796.00;5081905;27;45513;-84
2021/12/05 11:08:37;;;;;;;;;2.75;1.25;;;;;13.87;100.00;99787.84;5083302;28;45497;-84
2021/12/05 11:11:15;;;;;;;;;2.75;1.00;;;;;13.72;100.00;99798.13;5083121;28;45433;-85
2021/12/05 11:13:44;;;;;;;;;0.75;0.75;;;;;13.75;100.00;99791.66;5084344;27;45866;-84
2021/12/05 11:16:41;;;;;;;;;1.25;1.00;;;;;13.82;100.00;99798.06;5094700;27;45314;-84
2021/12/05 11:19:21;;;;;;;;;3.00;3.00;;;;;13.75;100.00;99779.22;5082757;27;45577;-84
2021/12/05 11:21:58;;;;;;;;;3.50;2.00;;;;;13.60;100.00;99795.78;5082730;28;46077;-84
2021/12/05 11:24:30;;;;;;;;;2.00;2.00;;;;;13.80;100.00;99795.56;5064345;28;45543;-87
2021/12/05 11:27:12;;;;;;;;;1.00;1.00;;;;;13.75;100.00;99783.69;5085633;27;45739;-81
2021/12/05 11:29:47;;;;;;;;;2.00;2.00;;;;;13.61;100.00;99785.03;5083028;27;45432;-78
2021/12/05 11:32:18;;;;;;;;;5.00;1.50;;;;;13.55;100.00;99779.50;5061941;28;48393;-79
2021/12/05 11:34:44;;;;;;;;;6.00;2.25;;;;;13.48;100.00;99785.34;5082486;27;45551;-79
2021/12/05 11:37:10;;;;;;;;;3.00;3.00;;;;;13.53;100.00;99787.59;5065004;28;45513;-79
2021/12/05 11:39:36;;;;;;;;;4.25;2.00;;;;;13.46;100.00;99787.34;5077546;27;45594;-80
2021/12/05 11:42:11;;;;;;;;;3.25;2.00;;;;;13.53;100.00;99784.94;5079301;27;45876;-80
2021/12/05 11:44:36;;;;;;;;;1.50;1.50;;;;;13.48;100.00;99782.69;5059370;28;46883;-79
2021/12/05 11:47:11;;;;;;;;;2.75;2.75;;;;;13.48;100.00;99787.16;5080957;28;45427;-80
2021/12/05 11:49:37;;;;;;;;;2.00;2.00;;;;;13.36;100.00;99796.31;5060216;28;45828;-81
2021/12/05 11:52:03;;;;;;;;;5.50;3.50;;;;;13.29;100.00;99797.88;5057034;28;46988;-82
2021/12/05 11:54:31;;;;;;;;;4.00;1.50;;;;;12.97;100.00;99816.72;5074956;28;45368;-80
2021/12/05 11:57:00;;;;;;;;;1.00;1.00;;;;;12.73;100.00;99827.75;5078587;28;45305;-80
2021/12/05 11:59:41;;;;;;;;;0.00;0.00;;;;;11.82;100.00;99820.91;5063835;28;45700;-80
2021/12/05 12:02:14;;;;;;;;;2.75;2.00;;;;;11.76;100.00;99824.06;5086700;27;45543;-80
2021/12/05 12:04:54;;;;;;;;;4.50;1.00;;;;;11.76;100.00;99834.66;5062946;28;45390;-80
2021/12/05 12:07:43;;;;;;;;;6.00;2.00;;;;;11.98;100.00;99836.28;5082848;28;45295;-81
2021/12/05 12:10:31;;;;;;;;;5.50;4.50;;;;;12.04;100.00;99827.78;5082089;28;45529;-80
2021/12/05 12:13:03;;;;;;;;;6.00;5.00;;;;;12.07;100.00;99834.63;5082116;28;46309;-82
2021/12/05 12:15:30;;;;;;;;;7.50;5.50;;;;;12.18;100.00;99832.72;5092808;27;45834;-81
2021/12/05 12:18:05;;;;;;;;;5.75;3.00;;;;;12.12;100.00;99835.88;5091534;27;45561;-81
2021/12/05 12:20:33;;;;;;;;;8.25;5.00;;;;;12.16;100.00;99832.00;5081424;27;45429;-81
2021/12/05 12:23:00;;;;;;;;;2.50;1.25;;;;;12.12;100.00;99829.75;5080488;27;45409;-81
2021/12/05 12:25:32;;;;;;;;;6.00;6.00;;;;;11.99;100.00;99833.50;5081257;28;45386;-81
2021/12/05 12:27:57;;;;;;;;;6.25;2.25;;;;;11.79;100.00;99842.31;5083730;27;45314;-82
2021/12/05 12:30:28;;;;;;;;;4.50;2.00;;;;;11.92;100.00;99845.59;5081807;27;45560;-82
2021/12/05 12:33:05;;;;;;;;;2.75;2.00;;;;;11.75;100.00;99848.84;5075919;28;46293;-81
2021/12/05 12:35:33;;;;;;;;;5.75;2.00;;;;;11.56;100.00;99848.75;5089729;27;45406;-81
2021/12/05 12:38:09;;;;;;;;;4.50;2.00;;;;;11.59;100.00;99846.66;5086346;27;45289;-80
2021/12/05 12:40:49;;;;;;;;;2.75;2.75;;;;;11.67;100.00;99840.69;5081833;28;45253;-82
2021/12/05 12:43:43;;;;;;;;;8.50;5.00;;;;;11.67;100.00;99855.72;5081070;28;45474;-81
2021/12/05 12:46:28;;;;;;;;;5.00;5.00;;;;;11.91;100.00;99851.00;5051155;28;45284;-81
2021/12/05 12:49:14;;;;;;;;;14.00;6.25;;;;;12.09;100.00;99851.22;5050015;28;45375;-82
2021/12/05 12:52:07;;;;;;;;;3.00;1.25;;;;;11.98;100.00;99855.63;5072549;28;45513;-82
2021/12/05 12:54:51;;;;;;;;;3.00;2.00;;;;;12.20;100.00;99864.34;5081006;28;46534;-83
2021/12/05 12:57:19;;;;;;;;;10.00;5.75;;;;;12.42;100.00;99860.63;5084455;27;45421;-82
2021/12/05 13:00:00;;;;;;;;;7.50;5.25;;;;;12.46;100.00;99860.22;5081142;28;45535;-82
2021/12/05 13:05:22;;;;;;;;;7.00;6.25;;;;;12.72;100.00;99864.00;5080860;28;45272;-81
2021/12/05 13:10:40;;;;;;;;;10.00;5.75;;;;;12.66;100.00;99861.88;5083328;28;45410;-83
2021/12/05 13:13:10;;;;;;;;;8.25;5.25;;;;;12.85;100.00;99861.06;5068661;28;45347;-82
2021/12/05 13:15:59;;;;;;;;;6.00;5.50;;;;;12.84;100.00;99867.34;5064849;28;47446;-82
2021/12/05 13:18:31;;;;;;;;;5.50;5.00;;;;;12.92;100.00;99864.00;5080170;28;45896;-84
2021/12/05 13:21:10;;;;;;;;;9.75;6.00;;;;;12.63;100.00;99866.66;5081350;28;45224;-81
2021/12/05 13:23:41;;;;;;;;;9.25;6.00;;;;;12.91;100.00;99881.72;5081181;28;45249;-80
2021/12/05 13:26:28;;;;;;;;;6.75;5.50;;;;;12.88;100.00;99875.84;5081121;28;45337;-82
2021/12/05 13:29:19;;;;;;;;;5.50;4.50;;;;;13.05;100.00;99880.44;5064084;28;45808;-82
2021/12/05 13:32:05;;;;;;;;;11.25;8.75;;;;;13.19;100.00;99877.41;5078138;27;45521;-82
2021/12/05 13:34:32;;;;;;;;;13.00;8.50;;;;;13.23;100.00;99873.50;5077463;27;45439;-82
2021/12/05 13:37:08;;;;;;;;;7.25;1.25;;;;;13.43;100.00;99877.78;5061184;28;48377;-82
2021/12/05 13:40:04;;;;;;;;;15.25;8.00;;;;;13.49;100.00;99877.22;5078812;27;45958;-82
2021/12/05 13:42:42;;;;;;;;;7.75;5.25;;;;;13.49;100.00;99885.16;5080003;27;45433;-82
2021/12/05 13:45:18;;;;;;;;;12.50;8.50;;;;;13.37;100.00;99890.78;5078993;27;45446;-81
2021/12/05 13:47:47;;;;;;;;;6.00;5.00;;;;;13.29;100.00;99882.72;5060685;27;47339;-81
2021/12/05 13:50:19;;;;;;;;;5.50;3.50;;;;;13.34;100.00;99886.59;5059636;27;45710;-81
2021/12/05 13:52:47;;;;;;;;;11.50;6.00;;;;;13.43;100.00;99883.09;5057444;27;45531;-80
2021/12/05 13:55:43;;;;;;;;;10.50;6.50;;;;;13.59;100.00;99897.56;5085646;27;45498;-82
2021/12/05 13:58:41;;;;;;;;;9.75;7.00;;;;;13.66;100.00;99902.16;5074368;27;46365;-84
2021/12/05 14:01:12;;;;;;;;;9.25;6.50;;;;;13.65;100.00;99910.28;5064231;27;45607;-82
2021/12/05 14:03:44;;;;;;;;;4.00;2.00;;;;;13.51;100.00;99906.25;5057618;28;45391;-81
2021/12/05 14:06:36;;;;;;;;;9.50;5.00;;;;;13.51;100.00;99908.06;5081526;27;45383;-87
2021/12/05 14:09:17;;;;;;;;;3.00;1.00;;;;;13.59;100.00;99908.19;5060211;28;48294;-83
2021/12/05 14:11:53;;;;;;;;;6.25;3.00;;;;;13.99;100.00;99908.78;5057407;28;45845;-83
2021/12/05 14:14:24;;;;;;;;;4.00;3.00;;;;;14.16;100.00;99904.50;5078762;27;45565;-82
2021/12/05 14:16:53;;;;;;;;;7.75;4.50;;;;;14.21;100.00;99900.41;5077160;28;45969;-82
2021/12/05 14:19:23;;;;;;;;;10.25;5.50;;;;;14.30;100.00;99898.69;5060690;28;48253;-82
2021/12/05 14:21:52;;;;;;;;;9.50;6.00;;;;;14.35;100.00;99916.84;5055272;28;46639;-82
2021/12/05 14:24:20;;;;;;;;;7.25;6.00;;;;;14.24;100.00;99908.09;5057350;28;45593;-81
2021/12/05 14:26:51;;;;;;;;;6.00;6.00;;;;;14.10;100.00;99921.88;5075244;28;45504;-82
2021/12/05 14:29:20;;;;;;;;;9.50;6.25;;;;;14.08;100.00;99934.44;5074023;28;45829;-82
2021/12/05 14:31:54;;;;;;;;;8.00;6.00;;;;;14.12;100.00;99932.31;5077408;28;45514;-82
2021/12/05 14:34:20;;;;;;;;;5.00;2.50;;;;;13.72;100.00;99933.44;5077463;27;45542;-82
2021/12/05 14:37:02;;;;;;;;;3.00;3.00;;;;;13.90;100.00;99935.34;5059257;28;45584;-82
2021/12/05 14:39:34;;;;;;;;;7.00;5.00;;;;;13.94;100.00;99934.91;5056332;28;47274;-82
2021/12/05 14:42:06;;;;;;;;;8.00;6.00;;;;;13.67;100.00;99934.81;5057249;28;46206;-81
2021/12/05 14:44:33;;;;;;;;;4.50;4.50;;;;;13.56;100.00;99935.00;5073835;27;45484;-81
2021/12/05 14:47:20;;;;;;;;;7.25;5.00;;;;;13.63;100.00;99942.25;5076573;27;45429;-81
2021/12/05 14:49:52;;;;;;;;;5.50;5.50;;;;;14.01;100.00;99941.31;5078341;27;45647;-81
2021/12/05 14:52:22;;;;;;;;;4.75;2.00;;;;;13.69;100.00;99943.50;5077706;27;45447;-81
2021/12/05 14:54:49;;;;;;;;;7.25;5.00;;;;;13.62;100.00;99966.25;5076797;28;45518;-81
2021/12/05 14:57:21;;;;;;;;;3.00;3.00;;;;;13.38;100.00;99961.41;5075560;28;45440;-81
2021/12/05 14:59:49;;;;;;;;;6.25;6.25;;;;;13.63;100.00;99962.63;5058809;28;47378;-81
2021/12/05 15:02:16;;;;;;;;;7.00;6.00;;;;;13.53;100.00;99975.91;5075314;27;45419;-81
2021/12/05 15:04:50;;;;;;;;;10.50;5.00;;;;;13.51;100.00;99974.38;5076568;28;45496;-81
2021/12/05 15:07:21;;;;;;;;;10.00;6.25;;;;;13.63;100.00;99984.69;5077544;27;45481;-83
2021/12/05 15:09:50;;;;;;;;;6.00;6.00;;;;;13.55;100.00;99981.09;5076512;27;46250;-81
2021/12/05 15:12:21;;;;;;;;;18.75;13.75;;;;;13.75;100.00;99988.84;5076444;27;45332;-81
2021/12/05 15:14:49;;;;;;;;;11.75;8.75;;;;;13.77;100.00;99983.41;5067338;27;46557;-80
2021/12/05 15:17:18;;;;;;;;;11.25;7.00;;;;;13.86;100.00;99993.16;5053908;28;45682;-80
2021/12/05 15:19:47;;;;;;;;;60.75;48.75;;;;;13.93;100.00;100002.22;5078203;27;45453;-80
2021/12/05 15:22:14;;;;;;;;;12.00;10.00;;;;;13.99;100.00;100006.97;5074767;27;45781;-80
2021/12/05 15:24:41;;;;;;;;;9.00;7.00;;;;;13.93;100.00;100009.38;5080364;27;45391;-80
2021/12/05 15:27:14;;;;;;;;;9.75;6.00;;;;;14.01;100.00;100010.34;5057866;28;45467;-80
2021/12/05 15:29:48;;;;;;;;;14.25;11.25;;;;;14.01;100.00;100025.44;5071943;28;45407;-79
2021/12/05 15:32:20;;;;;;;;;6.75;6.50;;;;;14.05;100.00;100026.81;5052245;28;45383;-80
2021/12/05 15:34:49;;;;;;;;;23.50;16.00;;;;;14.02;100.00;100027.09;5049209;28;45506;-79
2021/12/05 15:37:14;;;;;;;;;19.25;14.75;;;;;14.03;100.00;100024.28;5073837;28;45859;-79
2021/12/05 15:39:44;;;;;;;;;18.00;15.50;;;;;14.09;100.00;100025.53;5057331;28;47263;-79
2021/12/05 15:42:27;;;;;;;;;11.00;11.00;;;;;13.98;100.00;100039.81;5056932;28;45396;-79
2021/12/05 15:44:56;;;;;;;;;16.75;12.00;;;;;14.01;100.00;100052.81;5073025;27;45418;-79
2021/12/05 15:47:25;;;;;;;;;11.50;7.50;;;;;13.89;100.00;100050.44;5077144;27;45409;-79
2021/12/05 15:49:57;;;;;;;;;28.00;25.75;;;;;13.90;100.00;100047.66;5078507;28;46027;-79
2021/12/05 15:52:48;;;;;;;;;17.75;14.75;;;;;13.88;100.00;100068.19;5078629;28;45375;-79
2021/12/05 15:55:16;;;;;;;;;17.50;13.75;;;;;13.84;100.00;100070.28;5071557;28;45323;-79
2021/12/05 15:57:45;;;;;;;;;28.50;21.25;;;;;13.85;100.00;100069.28;5062537;27;46268;-79
2021/12/05 16:00:34;;;;;;;;;15.25;10.00;;;;;13.88;100.00;100078.81;5078818;28;46343;-79
2021/12/05 16:03:10;;;;;;;;;9.25;6.25;;;;;13.73;100.00;100090.81;5073005;28;45537;-79
2021/12/05 16:05:38;;;;;;;;;18.75;11.75;;;;;13.68;100.00;100080.63;5061028;28;45466;-79
2021/12/05 16:08:09;;;;;;;;;10.50;8.00;;;;;13.68;100.00;100098.34;5078278;27;45526;-80
2021/12/05 16:10:47;;;;;;;;;46.25;32.00;;;;;13.69;100.00;100103.53;5074312;28;47442;-80
2021/12/05 16:13:25;;;;;;;;;13.75;11.75;;;;;13.70;100.00;100107.84;5077858;27;45421;-80
2021/12/05 16:15:53;;;;;;;;;19.50;15.50;;;;;13.68;100.00;100098.34;5077272;28;45383;-79
2021/12/05 16:18:29;;;;;;;;;13.50;11.50;;;;;13.67;100.00;100108.13;5079642;28;45507;-79
2021/12/05 16:21:01;;;;;;;;;18.25;15.00;;;;;13.73;100.00;100120.00;5056700;28;48038;-79
2021/12/05 16:23:31;;;;;;;;;15.25;15.00;;;;;13.83;100.00;100121.69;5083001;27;45297;-79
2021/12/05 16:26:11;;;;;;;;;18.25;13.75;;;;;13.80;100.00;100129.09;5060550;27;45380;-79
2021/12/05 16:28:42;;;;;;;;;20.25;17.50;;;;;13.86;100.00;100132.00;5083530;27;45345;-80
2021/12/05 16:31:10;;;;;;;;;23.75;19.50;;;;;13.85;100.00;100146.25;5084937;27;45355;-79
2021/12/05 16:33:36;;;;;;;;;20.75;15.00;;;;;13.88;100.00;100142.50;5085294;28;45811;-80
2021/12/05 16:36:03;;;;;;;;;28.00;24.75;;;;;13.88;100.00;100150.47;5082099;28;45149;-81
2021/12/05 16:38:38;;;;;;;;;17.75;17.25;;;;;13.94;100.00;100147.25;5065475;28;46885;-81
2021/12/05 16:41:13;;;;;;;;;18.50;14.00;;;;;13.98;100.00;100148.66;5082895;28;45675;-80
2021/12/05 16:43:48;;;;;;;;;15.50;11.25;;;;;14.04;100.00;100153.38;5072618;27;45616;-81
2021/12/05 16:46:20;;;;;;;;;9.50;9.50;;;;;13.98;100.00;100161.91;5069482;27;45447;-82
2021/12/05 16:48:46;;;;;;;;;10.75;8.75;;;;;13.93;100.00;100166.00;5067323;28;45700;-81
2021/12/05 16:51:22;;;;;;;;;31.25;17.50;;;;;13.95;100.00;100170.16;5080923;27;45728;-80
2021/12/05 16:53:50;;;;;;;;;56.25;43.25;;;;;13.88;100.00;100162.88;5079019;27;45443;-81
2021/12/05 16:56:38;;;;;;;;;19.25;17.25;;;;;13.96;100.00;100176.31;5091027;27;45543;-81
2021/12/05 16:59:27;;;;;;;;;16.25;15.00;;;;;14.02;100.00;100175.78;5065496;27;45649;-82
2021/12/05 17:02:14;;;;;;;;;20.50;15.50;;;;;13.96;100.00;100179.78;5069851;28;45560;-82
2021/12/05 17:05:02;;;;;;;;;15.50;14.25;;;;;13.84;100.00;100184.38;5073733;27;45592;-82
2021/12/05 17:08:10;;;;;;;;;20.75;15.25;;;;;13.86;100.00;100186.91;5076557;27;45446;-82
2021/12/05 17:10:51;;;;;;;;;17.00;15.25;;;;;13.78;100.00;100179.66;5065495;27;45556;-81
2021/12/05 17:13:39;;;;;;;;;14.00;12.75;;;;;13.89;100.00;100196.41;5078821;28;46469;-82
2021/12/05 17:16:15;;;;;;;;;20.75;15.75;;;;;13.77;100.00;100193.03;5077976;27;45428;-82
2021/12/05 17:18:45;;;;;;;;;18.25;16.25;;;;;13.69;100.00;100204.34;5082153;27;45277;-81